Time;durP1;ratioP1;P1;durP2;ratioP2;P2;SDS_P1;SDS_P2;PMS_P1;PMS_P2;Temp;Humidity;BMP_temperature;BMP_pressure;BME280_temperature;BME280_humidity;BME280_pressure;Samples;Min_cycle;Max_cycle;Signal;HPM_P1;HPM_P2
2022/12/01 00:00:35;;;;;;;5.87;5.37;;;16.20;67.40;17.10;101654.00;;;;5067534;28;20504;-44
2022/12/01 00:03:01;;;;;;;5.30;4.80;;;16.20;67.40;17.10;101659.00;;;;5067275;28;20548;-44
2022/12/01 00:05:27;;;;;;;5.37;4.97;;;16.20;67.40;17.10;101663.00;;;;5068298;28;20260;-44
2022/12/01 00:07:53;;;;;;;5.77;5.27;;;16.20;67.50;17.10;101660.00;;;;5070546;28;20251;-47
2022/12/01 00:10:25;;;;;;;5.33;4.83;;;16.20;67.40;17.10;101664.00;;;;5070949;28;20219;-45
2022/12/01 00:12:58;;;;;;;5.43;4.93;;;16.20;67.50;17.10;101663.00;;;;5071172;28;20213;-45
2022/12/01 00:15:35;;;;;;;5.47;5.03;;;16.10;67.40;17.10;101660.00;;;;5071213;28;20184;-44
2022/12/01 00:18:02;;;;;;;5.53;5.03;;;16.20;67.50;17.10;101657.00;;;;5070777;28;20610;-45
2022/12/01 00:20:28;;;;;;;5.50;5.00;;;16.10;67.40;17.10;101655.00;;;;5052795;28;20243;-45
2022/12/01 00:22:54;;;;;;;5.90;5.40;;;16.10;67.40;17.10;101657.00;;;;5070503;28;20162;-44
2022/12/01 00:25:20;;;;;;;5.20;4.80;;;16.10;67.40;17.10;101653.00;;;;5071088;28;20288;-45
2022/12/01 00:27:50;;;;;;;5.43;4.93;;;16.10;67.50;17.10;101664.00;;;;5053147;28;20765;-44
2022/12/01 00:30:16;;;;;;;5.60;4.97;;;16.10;67.60;17.10;101649.00;;;;5053002;28;20173;-45
2022/12/01 00:32:42;;;;;;;5.23;4.83;;;16.10;67.60;17.10;101653.00;;;;5070325;28;20201;-45
2022/12/01 00:35:08;;;;;;;5.07;4.67;;;16.10;67.60;17.10;101655.00;;;;5070152;28;20283;-44
2022/12/01 00:37:34;;;;;;;5.60;5.10;;;16.10;67.60;17.10;101660.00;;;;5070333;28;20196;-45
2022/12/01 00:40:00;;;;;;;5.30;4.80;;;16.00;67.70;17.10;101650.00;;;;5070598;28;20271;-45
2022/12/01 00:42:26;;;;;;;5.20;4.80;;;16.00;67.40;17.10;101644.00;;;;5070319;28;20646;-43
2022/12/01 00:44:51;;;;;;;5.17;4.77;;;16.00;67.40;17.00;101645.00;;;;5070610;28;20201;-44
2022/12/01 00:47:17;;;;;;;5.13;4.73;;;16.00;67.60;17.00;101647.00;;;;5070746;28;20224;-44
2022/12/01 00:49:44;;;;;;;4.80;4.40;;;16.00;67.60;17.10;101652.00;;;;5074106;28;20513;-44
2022/12/01 00:52:11;;;;;;;4.77;4.37;;;16.00;67.60;17.00;101656.00;;;;5079566;28;20266;-44
2022/12/01 00:54:36;;;;;;;5.10;4.70;;;15.90;67.50;17.10;101655.00;;;;5073111;28;20184;-45
2022/12/01 00:57:02;;;;;;;4.73;4.33;;;15.90;67.50;17.00;101668.00;;;;5070365;28;20571;-45
2022/12/01 00:59:28;;;;;;;5.40;5.00;;;15.90;67.70;17.00;101651.00;;;;5070569;28;20173;-45
2022/12/01 01:01:54;;;;;;;5.03;4.63;;;16.00;67.80;17.00;101662.00;;;;5069910;28;20239;-44
2022/12/01 01:04:19;;;;;;;4.93;4.53;;;16.00;67.70;17.10;101663.00;;;;5070588;28;20692;-45
2022/12/01 01:06:45;;;;;;;5.30;4.90;;;16.10;67.60;17.10;101670.00;;;;5069342;28;20197;-44
2022/12/01 01:09:11;;;;;;;5.40;4.90;;;16.20;67.50;17.10;101661.00;;;;5069810;28;20186;-44
2022/12/01 01:11:37;;;;;;;5.10;4.70;;;16.30;67.40;17.10;101677.00;;;;5069361;28;20188;-45
2022/12/01 01:14:03;;;;;;;5.13;4.73;;;16.30;67.20;17.20;101668.00;;;;5069757;28;20642;-44
2022/12/01 01:16:29;;;;;;;5.17;4.77;;;16.40;67.20;17.20;101674.00;;;;5068507;28;20205;-46
2022/12/01 01:18:56;;;;;;;4.80;4.40;;;16.40;67.20;17.20;101676.00;;;;5069996;28;20216;-43
2022/12/01 01:21:22;;;;;;;4.90;4.50;;;16.40;67.20;17.20;101672.00;;;;5069379;28;20595;-44
2022/12/01 01:23:49;;;;;;;5.00;4.60;;;16.40;67.20;17.20;101667.00;;;;5069736;28;20170;-44
2022/12/01 01:26:19;;;;;;;4.70;4.30;;;16.40;67.20;17.30;101679.00;;;;5069951;28;20592;-45
2022/12/01 01:28:46;;;;;;;4.80;4.40;;;16.40;67.20;17.30;101679.00;;;;5069561;28;20166;-44
2022/12/01 01:31:15;;;;;;;4.63;4.33;;;16.40;67.30;17.30;101667.00;;;;5069424;28;20662;-44
2022/12/01 01:33:40;;;;;;;5.13;4.73;;;16.40;67.40;17.30;101677.00;;;;5069335;28;20765;-45
2022/12/01 01:36:06;;;;;;;4.67;4.27;;;16.40;67.30;17.30;101689.00;;;;5051438;28;20205;-45
2022/12/01 01:38:32;;;;;;;4.57;4.17;;;16.40;67.40;17.30;101677.00;;;;5069212;28;20255;-45
2022/12/01 01:40:58;;;;;;;4.90;4.50;;;16.40;67.40;17.30;101678.00;;;;5069259;28;20312;-44
2022/12/01 01:43:58;;;;;;;5.20;4.80;;;16.40;67.50;17.30;101678.00;;;;5069470;28;20177;-45
2022/12/01 01:46:26;;;;;;;5.20;4.80;;;16.30;67.40;17.30;101688.00;;;;5026042;28;20321;-43
2022/12/01 01:49:07;;;;;;;4.80;4.40;;;16.40;67.40;17.30;101686.00;;;;5069698;28;20330;-45
2022/12/01 01:51:50;;;;;;;4.90;4.50;;;16.50;67.50;17.30;101693.00;;;;5035029;28;20287;-44
2022/12/01 01:54:32;;;;;;;4.40;4.00;;;16.50;67.50;17.30;101689.00;;;;5051508;28;20230;-44
2022/12/01 01:56:59;;;;;;;4.57;4.27;;;16.50;67.40;17.30;101686.00;;;;5051214;28;20194;-44
2022/12/01 01:59:31;;;;;;;5.00;4.60;;;16.50;67.40;17.30;101681.00;;;;5051343;28;20248;-45
2022/12/01 02:02:07;;;;;;;4.77;4.37;;;16.50;67.50;17.30;101682.00;;;;5050694;28;20182;-45
2022/12/01 02:04:35;;;;;;;4.60;4.20;;;16.50;67.50;17.30;101688.00;;;;5068844;28;20230;-44
2022/12/01 02:07:00;;;;;;;4.60;4.20;;;16.50;67.50;17.30;101682.00;;;;5050733;28;20744;-43
2022/12/01 02:09:26;;;;;;;4.60;4.27;;;16.40;67.40;17.30;101677.00;;;;5068936;28;20208;-43
2022/12/01 02:12:13;;;;;;;4.97;4.57;;;16.50;67.60;17.30;101666.00;;;;5068566;28;20201;-43
2022/12/01 02:15:13;;;;;;;4.60;4.20;;;16.50;67.60;17.30;101678.00;;;;5051572;28;20165;-44
2022/12/01 02:18:06;;;;;;;4.73;4.33;;;16.40;67.50;17.30;101682.00;;;;5068374;28;20239;-45
2022/12/01 02:21:20;;;;;;;4.80;4.40;;;16.40;67.60;17.30;101671.00;;;;5050678;28;20252;-45
2022/12/01 02:24:04;;;;;;;4.53;4.13;;;16.40;67.70;17.30;101677.00;;;;5053337;28;20245;-44
2022/12/01 02:26:57;;;;;;;4.57;4.20;;;16.40;67.80;17.30;101679.00;;;;5068262;28;20304;-46
2022/12/01 02:29:53;;;;;;;4.43;4.13;;;16.40;67.80;17.30;101662.00;;;;5053740;28;20230;-44
2022/12/01 02:33:09;;;;;;;4.60;4.20;;;16.50;67.80;17.30;101673.00;;;;5050658;28;20198;-44
2022/12/01 02:36:03;;;;;;;4.93;4.53;;;16.50;67.60;17.30;101668.00;;;;5064423;28;20210;-45
2022/12/01 02:38:37;;;;;;;4.53;4.13;;;16.50;67.60;17.30;101669.00;;;;5051562;28;20251;-45
2022/12/01 02:41:28;;;;;;;4.80;4.40;;;16.50;67.60;17.30;101670.00;;;;5050965;28;20174;-44
2022/12/01 02:44:19;;;;;;;4.67;4.30;;;16.50;67.60;17.30;101679.00;;;;5050227;28;20722;-44
2022/12/01 02:46:50;;;;;;;4.43;4.13;;;16.60;67.70;17.30;101677.00;;;;5050147;28;20216;-44
2022/12/01 02:49:19;;;;;;;5.00;4.60;;;16.50;67.60;17.30;101671.00;;;;5067956;28;20635;-45
2022/12/01 02:51:45;;;;;;;4.50;4.10;;;16.50;67.60;17.30;101665.00;;;;5050131;28;20225;-45
2022/12/01 02:54:12;;;;;;;4.73;4.33;;;16.50;67.60;17.30;101666.00;;;;5050322;28;20586;-45
2022/12/01 02:56:38;;;;;;;4.40;4.10;;;16.50;67.70;17.30;101668.00;;;;5050262;28;20289;-45
2022/12/01 02:59:11;;;;;;;4.90;4.50;;;16.50;67.70;17.30;101670.00;;;;5068137;28;20248;-44
2022/12/01 03:02:01;;;;;;;4.87;4.47;;;16.40;67.70;17.30;101663.00;;;;5067948;28;20171;-44
2022/12/01 03:05:38;;;;;;;4.87;4.47;;;16.40;67.80;17.30;101676.00;;;;5052337;28;20158;-44
2022/12/01 03:08:12;;;;;;;4.63;4.27;;;16.40;67.90;17.30;101667.00;;;;4993175;28;20215;-44
2022/12/01 03:10:52;;;;;;;4.80;4.40;;;16.50;68.00;17.30;101670.00;;;;5030039;28;20182;-44
2022/12/01 03:13:41;;;;;;;4.57;4.27;;;16.50;68.20;17.30;101662.00;;;;5013814;28;20210;-45
2022/12/01 03:16:37;;;;;;;4.73;4.37;;;16.50;68.00;17.30;101668.00;;;;5014324;28;20198;-44
2022/12/01 03:19:07;;;;;;;5.00;4.50;;;16.60;68.00;17.30;101669.00;;;;5030366;28;20553;-44
2022/12/01 03:21:41;;;;;;;4.80;4.40;;;16.60;68.00;17.30;101667.00;;;;5030047;28;20178;-44
2022/12/01 03:24:15;;;;;;;4.80;4.40;;;16.60;67.90;17.30;101684.00;;;;5030139;28;20617;-45
2022/12/01 03:26:44;;;;;;;5.10;4.70;;;16.50;67.80;17.30;101668.00;;;;5029859;28;20241;-43
2022/12/01 03:29:20;;;;;;;4.87;4.47;;;16.50;67.80;17.30;101666.00;;;;5030602;28;20232;-44
2022/12/01 03:31:53;;;;;;;4.60;4.20;;;16.50;67.90;17.10;101668.00;;;;5030127;28;20190;-45
2022/12/01 03:34:34;;;;;;;4.70;4.37;;;16.50;68.00;17.40;101659.00;;;;5016888;28;20170;-45
2022/12/01 03:37:17;;;;;;;4.80;4.40;;;16.50;67.90;17.30;101659.00;;;;5037085;28;20557;-45
2022/12/01 03:39:42;;;;;;;5.37;4.87;;;16.50;68.00;17.40;101673.00;;;;5033582;28;20177;-45
2022/12/01 03:42:21;;;;;;;5.07;4.67;;;16.50;68.10;17.30;101668.00;;;;5033783;28;20174;-44
2022/12/01 03:44:53;;;;;;;4.80;4.40;;;16.50;68.00;17.30;101674.00;;;;5017244;28;20166;-44
2022/12/01 03:47:21;;;;;;;5.10;4.70;;;16.40;68.00;17.30;101669.00;;;;5033554;28;20585;-44
2022/12/01 03:49:49;;;;;;;5.27;4.77;;;16.50;68.30;17.30;101664.00;;;;5017301;28;20190;-45
2022/12/01 03:52:34;;;;;;;5.33;4.93;;;16.50;68.20;17.30;101664.00;;;;5033072;28;20194;-44
2022/12/01 03:55:23;;;;;;;5.50;5.07;;;16.40;68.00;17.30;101666.00;;;;5034614;28;20158;-45
2022/12/01 03:57:59;;;;;;;5.03;4.63;;;16.40;68.00;17.30;101671.00;;;;5033348;28;20218;-44
2022/12/01 04:00:25;;;;;;;5.00;4.60;;;16.40;68.70;17.30;101666.00;;;;5017670;28;20184;-44
2022/12/01 04:03:00;;;;;;;5.63;5.13;;;16.40;68.20;17.30;101653.00;;;;5033415;28;20183;-45
2022/12/01 04:05:26;;;;;;;5.73;5.23;;;16.40;68.20;17.30;101669.00;;;;5034121;28;20186;-45
2022/12/01 04:07:52;;;;;;;5.57;5.10;;;16.40;68.20;17.30;101674.00;;;;5050922;28;20202;-45
2022/12/01 04:10:18;;;;;;;5.07;4.67;;;16.40;68.20;17.30;101670.00;;;;5051049;28;20174;-44
2022/12/01 04:12:44;;;;;;;4.87;4.47;;;16.30;68.10;17.30;101676.00;;;;5050584;28;20213;-45
2022/12/01 04:15:11;;;;;;;5.70;5.20;;;16.30;68.10;17.30;101672.00;;;;5050856;28;20171;-45
2022/12/01 04:17:38;;;;;;;5.40;5.00;;;16.30;68.10;17.20;101684.00;;;;5050552;28;20315;-47
2022/12/01 04:20:05;;;;;;;5.27;4.87;;;16.30;68.10;17.20;101673.00;;;;5050826;28;20166;-44
2022/12/01 04:22:32;;;;;;;5.30;4.90;;;16.30;68.10;17.20;101675.00;;;;5050713;28;20257;-43
2022/12/01 04:24:58;;;;;;;5.80;5.30;;;16.20;68.00;17.20;101677.00;;;;5056577;28;20182;-44
2022/12/01 04:27:23;;;;;;;5.90;5.40;;;16.20;68.00;17.20;101683.00;;;;5070859;28;20193;-44
2022/12/01 04:29:49;;;;;;;5.90;5.40;;;16.30;68.10;17.20;101684.00;;;;5070753;28;20181;-44
2022/12/01 04:32:15;;;;;;;6.23;5.47;;;16.20;68.40;17.20;101673.00;;;;5061357;28;20627;-45
2022/12/01 04:34:40;;;;;;;6.10;5.57;;;16.20;68.20;17.20;101674.00;;;;5059364;28;20228;-44
2022/12/01 04:37:08;;;;;;;6.93;5.20;;;16.20;68.10;17.10;101675.00;;;;5052596;28;20248;-44
2022/12/01 04:39:34;;;;;;;5.90;5.30;;;16.20;68.40;17.10;101677.00;;;;5064642;28;20239;-44
2022/12/01 04:42:00;;;;;;;6.27;5.60;;;16.20;68.40;17.10;101676.00;;;;5066632;28;20291;-44
2022/12/01 04:44:26;;;;;;;6.40;5.80;;;16.20;68.40;17.10;101670.00;;;;5070682;28;20189;-43
2022/12/01 04:46:52;;;;;;;7.33;6.63;;;16.20;68.20;17.10;101655.00;;;;5071433;28;20753;-44
2022/12/01 04:49:19;;;;;;;8.23;6.83;;;16.10;68.00;17.10;101656.00;;;;5071103;28;20178;-43
2022/12/01 04:51:44;;;;;;;7.50;6.63;;;16.10;68.10;17.10;101672.00;;;;5052649;28;20200;-44
2022/12/01 04:54:10;;;;;;;8.13;7.33;;;16.10;67.90;17.10;101671.00;;;;5070797;28;20173;-44
2022/12/01 04:56:36;;;;;;;8.70;7.40;;;16.10;67.90;17.10;101682.00;;;;5070339;28;20194;-44
2022/12/01 04:59:02;;;;;;;8.63;7.70;;;16.00;67.80;17.10;101675.00;;;;5070430;28;20156;-44
2022/12/01 05:01:27;;;;;;;8.63;7.73;;;16.10;67.70;17.00;101668.00;;;;5069804;28;20193;-44
2022/12/01 05:03:53;;;;;;;9.87;7.53;;;16.00;67.60;17.00;101679.00;;;;5070453;28;20276;-44
2022/12/01 05:06:24;;;;;;;9.27;8.30;;;16.00;67.50;17.00;101680.00;;;;5070147;28;20194;-44
2022/12/01 05:08:50;;;;;;;9.90;8.87;;;15.90;67.40;17.00;101682.00;;;;5070786;28;20421;-44
2022/12/01 05:11:17;;;;;;;9.33;8.37;;;15.90;67.30;17.00;101676.00;;;;5051678;28;20177;-44
2022/12/01 05:13:45;;;;;;;9.40;8.40;;;15.90;67.20;17.00;101682.00;;;;5069869;28;20286;-44
2022/12/01 05:16:31;;;;;;;9.67;8.77;;;15.90;67.20;17.00;101680.00;;;;5070074;28;20697;-44
2022/12/01 05:21:47;;;;;;;11.50;9.67;;;15.80;66.80;16.90;101675.00;;;;5069909;28;20207;-44
2022/12/01 05:24:13;;;;;;;10.97;9.07;;;15.80;66.80;16.90;101678.00;;;;5052537;28;20189;-43
2022/12/01 05:26:39;;;;;;;10.57;9.37;;;15.80;66.80;16.90;101682.00;;;;5070070;28;20217;-44
2022/12/01 05:29:05;;;;;;;10.40;9.40;;;15.80;66.80;16.90;101673.00;;;;5069813;28;20200;-44
2022/12/01 05:31:31;;;;;;;10.63;9.53;;;15.80;66.90;16.90;101677.00;;;;5051809;28;20201;-44
2022/12/01 05:33:57;;;;;;;14.73;9.20;;;15.80;66.90;16.90;101683.00;;;;5070052;28;20182;-45
2022/12/01 05:36:22;;;;;;;13.10;9.53;;;15.80;67.10;16.90;101679.00;;;;5070229;28;20196;-44
2022/12/01 05:38:48;;;;;;;14.10;10.27;;;15.80;67.10;16.90;101682.00;;;;5070166;28;20169;-44
2022/12/01 05:41:14;;;;;;;14.37;9.77;;;15.80;67.10;16.80;101680.00;;;;5068586;28;20205;-44
2022/12/01 05:43:40;;;;;;;14.87;9.83;;;15.90;67.20;16.80;101683.00;;;;5050879;28;20298;-44
2022/12/01 05:46:05;;;;;;;14.80;9.73;;;15.90;67.20;16.80;101682.00;;;;5069801;28;20193;-44
2022/12/01 05:48:31;;;;;;;17.40;9.90;;;15.90;67.00;16.90;101678.00;;;;5069783;28;20177;-44
2022/12/01 05:50:57;;;;;;;14.07;10.03;;;16.00;66.90;16.90;101674.00;;;;5069591;28;20177;-44
2022/12/01 05:53:22;;;;;;;15.80;9.30;;;16.10;66.90;16.90;101673.00;;;;5068009;28;20194;-46
2022/12/01 05:55:53;;;;;;;16.63;9.23;;;16.10;66.60;16.90;101683.00;;;;5069425;28;20199;-44
2022/12/01 05:58:19;;;;;;;18.07;9.33;;;16.20;66.70;17.00;101680.00;;;;5069817;28;20169;-44
2022/12/01 06:00:44;;;;;;;12.07;8.73;;;16.20;66.70;17.00;101686.00;;;;5069204;28;20776;-44
2022/12/01 06:03:10;;;;;;;15.97;9.33;;;16.30;66.70;17.00;101679.00;;;;5067786;28;20204;-47
2022/12/01 06:05:36;;;;;;;14.00;9.07;;;16.30;66.80;17.00;101685.00;;;;5071291;28;20176;-44
2022/12/01 06:08:02;;;;;;;15.77;9.37;;;16.30;66.90;17.00;101682.00;;;;5072988;28;20197;-43
2022/12/01 06:10:27;;;;;;;15.20;8.83;;;16.30;67.10;17.00;101688.00;;;;5070162;28;20638;-45
2022/12/01 06:12:53;;;;;;;14.73;8.97;;;16.20;67.10;17.00;101688.00;;;;5069309;28;20198;-44
2022/12/01 06:15:19;;;;;;;12.90;8.93;;;16.30;67.60;17.10;101683.00;;;;5064725;28;20539;-44
2022/12/01 06:17:44;;;;;;;13.90;8.43;;;16.30;67.40;17.10;101695.00;;;;5060298;28;20202;-46
2022/12/01 06:20:11;;;;;;;11.97;9.00;;;16.30;67.30;17.10;101688.00;;;;5066843;28;20292;-44
2022/12/01 06:22:36;;;;;;;12.70;9.17;;;16.30;67.40;17.10;101686.00;;;;5051157;28;20170;-45
2022/12/01 06:25:02;;;;;;;14.17;8.83;;;16.30;67.40;17.10;101692.00;;;;5069295;28;20176;-44
2022/12/01 06:27:28;;;;;;;12.00;8.67;;;16.30;67.40;17.10;101684.00;;;;5069499;28;20270;-44
2022/12/01 06:29:54;;;;;;;13.07;8.80;;;16.30;67.30;17.10;101693.00;;;;5069187;28;20178;-44
2022/12/01 06:32:19;;;;;;;10.07;8.70;;;16.30;67.40;17.10;101680.00;;;;5068087;28;20274;-44
2022/12/01 06:34:45;;;;;;;11.97;8.80;;;16.30;67.40;17.10;101710.00;;;;5068699;28;20193;-44
2022/12/01 06:37:11;;;;;;;9.60;8.40;;;16.30;67.40;17.10;101697.00;;;;5071060;28;20238;-44
2022/12/01 06:39:37;;;;;;;10.83;8.00;;;16.30;67.50;17.10;101694.00;;;;5069187;28;20219;-44
2022/12/01 06:42:02;;;;;;;11.80;8.47;;;16.30;67.60;17.10;101698.00;;;;5068603;28;20174;-44
2022/12/01 06:44:28;;;;;;;14.17;8.50;;;16.30;67.60;17.10;101697.00;;;;5069084;28;20176;-44
2022/12/01 06:46:55;;;;;;;10.63;8.83;;;16.30;67.60;17.10;101709.00;;;;5068692;28;20189;-45
2022/12/01 06:49:21;;;;;;;10.80;8.50;;;16.30;67.60;17.10;101700.00;;;;5051146;28;20169;-44
2022/12/01 06:51:47;;;;;;;9.37;8.10;;;16.20;67.60;17.10;101709.00;;;;5068286;28;20180;-45
2022/12/01 06:54:13;;;;;;;11.73;8.20;;;16.20;67.60;16.90;101717.00;;;;5034200;28;20170;-44
2022/12/01 06:56:41;;;;;;;10.77;8.73;;;16.20;67.60;17.10;101713.00;;;;5068899;28;20197;-44
2022/12/01 06:59:06;;;;;;;9.23;8.33;;;16.20;67.60;17.10;101712.00;;;;5068636;28;20170;-44
2022/12/01 07:01:32;;;;;;;10.17;8.30;;;16.20;67.60;17.10;101713.00;;;;5067836;28;20172;-44
2022/12/01 07:03:58;;;;;;;9.80;8.77;;;16.20;67.60;17.10;101717.00;;;;5068414;28;20219;-44
2022/12/01 07:06:23;;;;;;;11.23;9.00;;;16.20;67.70;17.10;101716.00;;;;5068622;28;20190;-44
2022/12/01 07:08:49;;;;;;;10.63;8.60;;;16.20;67.80;17.10;101712.00;;;;5069421;28;20189;-45
2022/12/01 07:11:15;;;;;;;10.53;8.63;;;16.20;67.70;17.00;101724.00;;;;5068053;28;20551;-43
2022/12/01 07:13:44;;;;;;;10.20;8.17;;;16.20;67.80;17.00;101714.00;;;;5068208;28;20193;-44
2022/12/01 07:16:10;;;;;;;13.20;8.50;;;16.20;67.80;17.00;101718.00;;;;5071664;28;20673;-44
2022/12/01 07:18:36;;;;;;;10.87;8.80;;;16.20;67.80;17.00;101718.00;;;;5072882;28;20249;-44
2022/12/01 07:21:07;;;;;;;9.27;8.03;;;16.10;67.70;17.00;101721.00;;;;5069159;28;20268;-44
2022/12/01 07:23:32;;;;;;;9.23;8.33;;;16.10;67.80;17.00;101718.00;;;;5071915;28;20210;-45
2022/12/01 07:26:17;;;;;;;9.67;8.20;;;16.10;67.80;17.00;101728.00;;;;5072365;28;20209;-43
2022/12/01 07:28:42;;;;;;;9.40;8.50;;;16.10;67.90;17.00;101718.00;;;;5054710;28;20177;-44
2022/12/01 07:31:10;;;;;;;11.17;8.13;;;16.10;67.80;17.00;101743.00;;;;5071825;28;20586;-45
2022/12/01 07:33:36;;;;;;;10.10;8.40;;;16.00;67.80;17.00;101737.00;;;;5053534;28;20288;-43
2022/12/01 07:36:02;;;;;;;11.97;8.70;;;16.00;67.80;16.90;101725.00;;;;5072045;28;20197;-44
2022/12/01 07:38:29;;;;;;;9.00;7.83;;;16.00;67.80;16.90;101736.00;;;;5072421;28;20169;-43
2022/12/01 07:40:54;;;;;;;9.57;8.10;;;16.00;67.80;16.90;101730.00;;;;5071762;28;20168;-44
2022/12/01 07:43:20;;;;;;;8.73;7.83;;;16.00;67.80;16.90;101733.00;;;;5071521;28;20260;-44
2022/12/01 07:45:46;;;;;;;9.20;8.30;;;16.00;67.80;16.90;101740.00;;;;5072097;28;20224;-43
2022/12/01 07:48:11;;;;;;;8.63;7.73;;;15.90;67.70;16.90;101741.00;;;;5072214;28;20580;-44
2022/12/01 07:50:37;;;;;;;10.00;8.13;;;15.90;67.70;16.90;101744.00;;;;5072129;28;20524;-44
2022/12/01 07:53:03;;;;;;;8.70;7.90;;;16.00;67.80;16.90;101743.00;;;;5071084;28;20251;-45
2022/12/01 07:55:28;;;;;;;8.83;7.93;;;15.90;67.70;16.90;101746.00;;;;5071498;28;20236;-45
2022/12/01 07:57:54;;;;;;;9.00;8.10;;;15.90;67.70;16.60;101743.00;;;;5072015;28;20200;-45
2022/12/01 08:00:20;;;;;;;8.90;8.00;;;15.90;67.70;16.80;101746.00;;;;5055240;28;20174;-44
2022/12/01 08:02:49;;;;;;;9.23;8.33;;;15.90;67.70;16.90;101751.00;;;;5065507;28;20209;-44
2022/12/01 08:05:15;;;;;;;8.80;8.00;;;15.90;67.70;16.80;101752.00;;;;5061743;28;20173;-43
2022/12/01 08:07:44;;;;;;;9.23;8.33;;;15.90;67.70;16.80;101751.00;;;;5057126;28;20579;-44
2022/12/01 08:10:10;;;;;;;8.70;7.80;;;15.80;67.80;16.80;101742.00;;;;5016842;28;20178;-44
2022/12/01 08:12:36;;;;;;;8.50;7.70;;;15.80;67.80;16.80;101753.00;;;;5050489;28;20213;-44
2022/12/01 08:15:02;;;;;;;9.37;8.37;;;15.80;67.90;16.80;101759.00;;;;5050107;28;20816;-43
2022/12/01 08:17:28;;;;;;;9.17;8.27;;;15.80;67.90;16.80;101765.00;;;;5032412;28;20217;-44
2022/12/01 08:19:53;;;;;;;9.10;8.20;;;15.80;67.90;16.80;101769.00;;;;5051088;28;20544;-44
2022/12/01 08:22:19;;;;;;;8.20;7.40;;;15.80;67.90;16.80;101767.00;;;;5050444;28;20543;-44
2022/12/01 08:24:45;;;;;;;8.33;7.53;;;15.80;67.90;16.80;101775.00;;;;5051093;28;20930;-44
2022/12/01 08:27:11;;;;;;;8.60;7.80;;;15.80;67.90;16.50;101771.00;;;;5050266;28;20198;-44
2022/12/01 08:29:37;;;;;;;8.53;7.63;;;15.70;67.80;16.70;101766.00;;;;5050886;28;20746;-45
2022/12/01 08:32:02;;;;;;;8.60;7.80;;;15.70;67.90;16.70;101772.00;;;;5059006;28;20248;-43
2022/12/01 08:34:28;;;;;;;8.87;7.77;;;15.70;68.00;16.70;101774.00;;;;5069608;28;20181;-45
2022/12/01 08:36:54;;;;;;;9.43;7.47;;;15.70;68.10;16.70;101773.00;;;;5068448;28;20616;-45
2022/12/01 08:39:20;;;;;;;9.10;7.70;;;15.70;68.20;16.70;101767.00;;;;5053370;28;20174;-43
2022/12/01 08:41:45;;;;;;;8.10;7.40;;;15.70;68.10;16.70;101768.00;;;;5070606;28;20173;-44
2022/12/01 08:44:11;;;;;;;8.27;7.47;;;15.80;68.30;16.70;101757.00;;;;5070627;28;20247;-44
2022/12/01 08:46:37;;;;;;;8.10;7.30;;;15.70;68.20;16.70;101769.00;;;;5059946;28;20780;-44
2022/12/01 08:49:04;;;;;;;8.93;7.87;;;15.70;68.40;16.70;101771.00;;;;5050603;28;20178;-44
2022/12/01 08:51:30;;;;;;;8.33;7.40;;;15.70;68.50;16.60;101774.00;;;;5050361;28;20162;-44
2022/12/01 08:53:56;;;;;;;9.30;8.33;;;15.70;68.50;16.60;101768.00;;;;5050439;28;20205;-45
2022/12/01 08:56:34;;;;;;;8.83;8.03;;;15.60;68.40;16.60;101763.00;;;;5057469;28;20186;-45
2022/12/01 08:59:00;;;;;;;7.80;7.10;;;15.60;68.40;16.60;101760.00;;;;5044249;28;20170;-44
2022/12/01 09:01:26;;;;;;;8.63;7.73;;;15.60;68.40;16.60;101751.00;;;;5053771;28;20232;-44
2022/12/01 09:04:09;;;;;;;9.07;7.70;;;15.60;68.40;16.60;101767.00;;;;5061352;28;20542;-45
2022/12/01 09:06:40;;;;;;;8.83;7.50;;;15.60;68.40;16.60;101776.00;;;;5064130;28;20284;-43
2022/12/01 09:09:08;;;;;;;8.40;7.60;;;15.60;68.50;16.60;101774.00;;;;5001816;28;20178;-44
2022/12/01 09:11:34;;;;;;;7.80;7.10;;;15.60;68.50;16.60;101756.00;;;;5070091;28;20219;-44
2022/12/01 09:14:00;;;;;;;8.03;7.23;;;15.60;68.40;16.60;101772.00;;;;5062717;28;20189;-43
2022/12/01 09:16:25;;;;;;;8.50;7.70;;;15.60;68.40;16.50;101772.00;;;;5060287;28;20202;-45
2022/12/01 09:18:51;;;;;;;8.30;7.53;;;15.60;68.40;16.50;101770.00;;;;5041573;28;20219;-45
2022/12/01 09:21:21;;;;;;;8.57;7.13;;;15.60;68.40;16.50;101773.00;;;;5060791;28;20597;-45
2022/12/01 09:23:47;;;;;;;7.43;6.73;;;15.60;68.30;16.50;101783.00;;;;5067501;28;20704;-43
2022/12/01 09:26:16;;;;;;;8.03;7.27;;;15.50;69.10;16.50;101776.00;;;;5059874;28;20186;-43
2022/12/01 09:28:43;;;;;;;8.20;7.40;;;15.50;68.20;16.50;101776.00;;;;5058732;28;20269;-44
2022/12/01 09:31:10;;;;;;;7.27;6.67;;;15.50;68.30;16.50;101782.00;;;;5060151;28;20166;-44
2022/12/01 09:33:36;;;;;;;8.03;7.23;;;15.50;68.30;16.50;101784.00;;;;5058123;28;20190;-44
2022/12/01 09:36:02;;;;;;;7.50;6.80;;;15.50;68.30;16.50;101771.00;;;;5060223;28;20173;-44
2022/12/01 09:38:28;;;;;;;8.13;7.43;;;15.50;68.40;16.40;101781.00;;;;5058038;28;20173;-45
2022/12/01 09:40:54;;;;;;;7.97;7.23;;;15.50;68.40;16.40;101784.00;;;;5063520;28;20266;-44
2022/12/01 09:43:25;;;;;;;7.70;7.00;;;15.40;68.20;16.50;101782.00;;;;5040024;28;20253;-45
2022/12/01 09:46:01;;;;;;;7.57;6.87;;;15.40;68.20;16.40;101767.00;;;;5044692;28;20209;-45
2022/12/01 09:48:42;;;;;;;6.97;6.37;;;15.40;68.30;16.40;101783.00;;;;5020506;28;20253;-45
2022/12/01 09:51:37;;;;;;;7.40;6.70;;;15.40;68.20;16.40;101787.00;;;;5032643;28;20158;-45
2022/12/01 09:54:03;;;;;;;7.43;6.83;;;15.40;68.20;16.30;101789.00;;;;5032572;28;20230;-45
2022/12/01 09:56:35;;;;;;;7.47;6.87;;;15.40;68.20;16.30;101786.00;;;;5049580;28;20652;-46
2022/12/01 09:59:06;;;;;;;8.27;6.70;;;15.30;68.10;16.30;101786.00;;;;5016599;28;20666;-44
2022/12/01 10:01:37;;;;;;;7.40;6.80;;;15.40;68.30;16.30;101794.00;;;;5036490;28;20563;-43
2022/12/01 10:04:21;;;;;;;7.50;6.77;;;15.40;68.40;16.30;101771.00;;;;5052782;28;20615;-44
2022/12/01 10:07:18;;;;;;;7.20;6.50;;;15.40;68.30;16.30;101781.00;;;;5052410;28;20664;-43
2022/12/01 10:09:56;;;;;;;7.37;6.77;;;15.30;68.10;16.30;101778.00;;;;4985206;28;20643;-45
2022/12/01 10:12:26;;;;;;;7.50;6.80;;;15.30;68.10;16.30;101769.00;;;;5048703;28;20659;-43
2022/12/01 10:14:55;;;;;;;7.43;6.73;;;15.30;68.10;16.30;101774.00;;;;5056918;28;20161;-44
2022/12/01 10:17:32;;;;;;;7.80;7.10;;;15.30;68.20;16.30;101772.00;;;;5024386;28;20705;-44
2022/12/01 10:20:26;;;;;;;7.27;6.67;;;15.30;68.30;16.30;101770.00;;;;5040453;28;20162;-44
2022/12/01 10:23:37;;;;;;;7.20;6.60;;;15.30;68.20;16.30;101772.00;;;;5041959;28;20197;-44
2022/12/01 10:26:14;;;;;;;7.10;6.50;;;15.30;68.40;16.20;101777.00;;;;5074673;28;20165;-44
2022/12/01 10:29:17;;;;;;;6.70;6.10;;;15.20;68.20;16.20;101764.00;;;;5048291;28;20258;-44
2022/12/01 10:31:50;;;;;;;8.07;6.63;;;15.20;68.20;16.20;101773.00;;;;5047796;28;20546;-44
2022/12/01 10:34:23;;;;;;;7.73;6.53;;;15.20;68.50;16.20;101770.00;;;;5048698;28;20364;-44
2022/12/01 10:36:49;;;;;;;10.03;6.50;;;15.20;68.90;16.20;101766.00;;;;5047845;28;20236;-44
2022/12/01 10:39:29;;;;;;;8.13;6.20;;;15.20;68.60;16.20;101762.00;;;;5048441;28;20170;-43
2022/12/01 10:42:04;;;;;;;9.47;6.40;;;15.30;68.60;16.20;101759.00;;;;5049247;28;20162;-44
2022/12/01 10:44:30;;;;;;;8.43;6.70;;;15.40;68.60;16.30;101764.00;;;;5049007;28;20174;-45
2022/12/01 10:46:56;;;;;;;6.80;6.13;;;15.50;68.60;16.30;101754.00;;;;5034034;28;20663;-44
2022/12/01 10:49:36;;;;;;;6.47;5.87;;;15.70;68.30;16.40;101757.00;;;;5049633;28;20169;-44
2022/12/01 10:52:01;;;;;;;8.40;6.37;;;15.80;68.00;16.20;101774.00;;;;5048513;28;20162;-44
2022/12/01 10:54:38;;;;;;;6.37;5.60;;;15.90;68.10;16.60;101762.00;;;;5049080;28;20223;-44
2022/12/01 10:57:12;;;;;;;10.30;5.77;;;16.10;67.90;16.70;101759.00;;;;5051561;28;20189;-45
2022/12/01 10:59:49;;;;;;;8.83;5.67;;;16.30;67.80;16.70;101763.00;;;;5024280;28;20166;-44
2022/12/01 11:02:22;;;;;;;12.07;5.87;;;16.50;67.50;16.90;101751.00;;;;5043111;28;20177;-44